sensor_id;sensor_type;location;lat;lon;timestamp;pressure;altitude;pressure_sealevel;temperature;humidity
5691;BME280;2870;42.680;23.364;2024-02-16T00:01:06;95683.28;;;4.34;82.12
5691;BME280;2870;42.680;23.364;2024-02-16T00:03:33;95681.78;;;4.22;82.41
5691;BME280;2870;42.680;23.364;2024-02-16T00:06:00;95691.38;;;4.15;83.20
5691;BME280;2870;42.680;23.364;2024-02-16T00:08:26;95687.56;;;4.18;83.44
5691;BME280;2870;42.680;23.364;2024-02-16T00:10:54;95686.31;;;4.19;83.07
5691;BME280;2870;42.680;23.364;2024-02-16T00:13:21;95687.09;;;4.14;83.10
5691;BME280;2870;42.680;23.364;2024-02-16T00:15:48;95689.09;;;4.19;82.92
5691;BME280;2870;42.680;23.364;2024-02-16T00:18:15;95685.31;;;4.17;83.52
5691;BME280;2870;42.680;23.364;2024-02-16T00:20:41;95689.06;;;4.08;84.05
5691;BME280;2870;42.680;23.364;2024-02-16T00:23:08;95702.22;;;4.13;83.58
5691;BME280;2870;42.680;23.364;2024-02-16T00:25:36;95686.06;;;4.06;83.83
5691;BME280;2870;42.680;23.364;2024-02-16T00:28:05;95681.78;;;4.11;82.90
5691;BME280;2870;42.680;23.364;2024-02-16T00:30:31;95691.09;;;4.08;83.12
5691;BME280;2870;42.680;23.364;2024-02-16T00:32:58;95697.16;;;4.01;83.10
5691;BME280;2870;42.680;23.364;2024-02-16T00:35:26;95645.84;;;3.62;83.48
5691;BME280;2870;42.680;23.364;2024-02-16T00:37:53;95698.63;;;3.85;83.06
5691;BME280;2870;42.680;23.364;2024-02-16T00:40:19;95693.84;;;3.85;82.89
5691;BME280;2870;42.680;23.364;2024-02-16T00:42:47;95699.41;;;3.91;82.35
5691;BME280;2870;42.680;23.364;2024-02-16T00:45:15;95687.31;;;3.94;82.67
5691;BME280;2870;42.680;23.364;2024-02-16T00:47:42;95699.16;;;4.00;82.60
5691;BME280;2870;42.680;23.364;2024-02-16T00:50:10;95694.59;;;3.97;82.79
5691;BME280;2870;42.680;23.364;2024-02-16T00:52:37;95691.56;;;3.84;82.32
5691;BME280;2870;42.680;23.364;2024-02-16T00:55:05;95701.91;;;3.83;83.11
5691;BME280;2870;42.680;23.364;2024-02-16T00:57:32;95697.88;;;3.84;83.04
5691;BME280;2870;42.680;23.364;2024-02-16T00:59:59;95706.16;;;3.67;82.85
5691;BME280;2870;42.680;23.364;2024-02-16T01:02:27;95702.63;;;3.72;83.33
5691;BME280;2870;42.680;23.364;2024-02-16T01:04:54;95700.91;;;3.75;83.29
5691;BME280;2870;42.680;23.364;2024-02-16T01:07:27;95693.53;;;3.66;83.47
5691;BME280;2870;42.680;23.364;2024-02-16T01:09:53;95698.84;;;3.64;83.47
5691;BME280;2870;42.680;23.364;2024-02-16T01:12:21;95691.00;;;3.68;83.88
5691;BME280;2870;42.680;23.364;2024-02-16T01:14:48;95686.75;;;3.73;83.88
5691;BME280;2870;42.680;23.364;2024-02-16T01:17:15;95694.06;;;3.70;83.62
5691;BME280;2870;42.680;23.364;2024-02-16T01:19:43;95689.50;;;3.62;83.83
5691;BME280;2870;42.680;23.364;2024-02-16T01:22:09;95687.47;;;3.62;83.85
5691;BME280;2870;42.680;23.364;2024-02-16T01:24:36;95685.44;;;3.63;84.41
5691;BME280;2870;42.680;23.364;2024-02-16T01:27:03;95683.69;;;3.60;84.32
5691;BME280;2870;42.680;23.364;2024-02-16T01:29:29;95687.22;;;3.60;83.98
5691;BME280;2870;42.680;23.364;2024-02-16T01:31:58;95686.72;;;3.62;84.21
5691;BME280;2870;42.680;23.364;2024-02-16T01:34:24;95676.63;;;3.59;84.50
5691;BME280;2870;42.680;23.364;2024-02-16T01:36:52;95683.91;;;3.56;84.44
5691;BME280;2870;42.680;23.364;2024-02-16T01:39:19;95679.41;;;3.59;84.72
5691;BME280;2870;42.680;23.364;2024-02-16T01:41:46;95680.16;;;3.54;84.57
5691;BME280;2870;42.680;23.364;2024-02-16T01:44:13;95679.88;;;3.57;85.01
5691;BME280;2870;42.680;23.364;2024-02-16T01:46:42;95675.88;;;3.58;84.33
5691;BME280;2870;42.680;23.364;2024-02-16T01:49:09;95679.31;;;3.31;85.62
5691;BME280;2870;42.680;23.364;2024-02-16T01:51:36;95672.53;;;3.37;85.76
5691;BME280;2870;42.680;23.364;2024-02-16T01:54:05;95678.34;;;3.45;85.97
5691;BME280;2870;42.680;23.364;2024-02-16T01:56:31;95672.25;;;3.30;85.50
5691;BME280;2870;42.680;23.364;2024-02-16T01:58:58;95678.72;;;3.15;85.78
5691;BME280;2870;42.680;23.364;2024-02-16T02:01:25;95673.94;;;3.16;85.88
5691;BME280;2870;42.680;23.364;2024-02-16T02:03:52;95671.53;;;3.40;85.34
5691;BME280;2870;42.680;23.364;2024-02-16T02:06:18;95677.03;;;3.29;85.44
5691;BME280;2870;42.680;23.364;2024-02-16T02:08:45;95675.75;;;3.25;85.94
5691;BME280;2870;42.680;23.364;2024-02-16T02:11:13;95665.16;;;3.29;85.74
5691;BME280;2870;42.680;23.364;2024-02-16T02:13:40;95618.88;;;2.86;85.91
5691;BME280;2870;42.680;23.364;2024-02-16T02:16:07;95677.44;;;3.11;86.17
5691;BME280;2870;42.680;23.364;2024-02-16T02:18:36;95677.22;;;3.14;86.32
5691;BME280;2870;42.680;23.364;2024-02-16T02:21:03;95669.84;;;3.06;86.60
5691;BME280;2870;42.680;23.364;2024-02-16T02:23:31;95672.91;;;3.08;86.68
5691;BME280;2870;42.680;23.364;2024-02-16T02:25:59;95673.38;;;3.06;87.35
5691;BME280;2870;42.680;23.364;2024-02-16T02:28:26;95661.00;;;2.96;87.52
5691;BME280;2870;42.680;23.364;2024-02-16T02:30:54;95672.88;;;3.02;87.86
5691;BME280;2870;42.680;23.364;2024-02-16T02:33:21;95674.91;;;3.02;88.47
5691;BME280;2870;42.680;23.364;2024-02-16T02:35:48;95676.63;;;2.99;88.39
5691;BME280;2870;42.680;23.364;2024-02-16T02:38:14;95670.63;;;3.06;88.58
5691;BME280;2870;42.680;23.364;2024-02-16T02:40:42;95675.66;;;3.02;88.64
5691;BME280;2870;42.680;23.364;2024-02-16T02:43:09;95677.34;;;2.94;88.77
5691;BME280;2870;42.680;23.364;2024-02-16T02:45:36;95676.78;;;2.79;88.98
5691;BME280;2870;42.680;23.364;2024-02-16T02:48:03;95673.06;;;2.93;88.91
5691;BME280;2870;42.680;23.364;2024-02-16T02:50:29;95680.66;;;2.98;88.83
5691;BME280;2870;42.680;23.364;2024-02-16T02:52:57;95672.09;;;2.96;88.88
5691;BME280;2870;42.680;23.364;2024-02-16T02:55:22;95670.47;;;2.73;89.61
5691;BME280;2870;42.680;23.364;2024-02-16T02:57:50;95672.94;;;2.71;89.64
5691;BME280;2870;42.680;23.364;2024-02-16T03:05:21;95620.19;;;2.48;90.17
5691;BME280;2870;42.680;23.364;2024-02-16T03:07:48;95674.56;;;2.88;90.20
5691;BME280;2870;42.680;23.364;2024-02-16T03:10:14;95668.75;;;2.86;89.93
5691;BME280;2870;42.680;23.364;2024-02-16T03:12:46;95673.41;;;2.63;90.22
5691;BME280;2870;42.680;23.364;2024-02-16T03:15:16;95669.47;;;2.76;89.97
5691;BME280;2870;42.680;23.364;2024-02-16T03:17:43;95664.44;;;2.80;89.96
5691;BME280;2870;42.680;23.364;2024-02-16T03:20:10;95668.75;;;2.86;89.85
5691;BME280;2870;42.680;23.364;2024-02-16T03:22:36;95671.47;;;2.75;89.69
5691;BME280;2870;42.680;23.364;2024-02-16T03:25:04;95664.56;;;2.59;90.56
5691;BME280;2870;42.680;23.364;2024-02-16T03:27:31;95663.84;;;2.64;90.87
5691;BME280;2870;42.680;23.364;2024-02-16T03:29:58;95674.16;;;2.64;90.71
5691;BME280;2870;42.680;23.364;2024-02-16T03:32:26;95671.19;;;2.68;90.77
5691;BME280;2870;42.680;23.364;2024-02-16T03:34:52;95674.22;;;2.70;90.88
5691;BME280;2870;42.680;23.364;2024-02-16T03:37:19;95677.72;;;2.70;90.85
5691;BME280;2870;42.680;23.364;2024-02-16T03:39:46;95673.53;;;2.80;90.32
5691;BME280;2870;42.680;23.364;2024-02-16T03:42:12;95609.97;;;2.23;90.03
5691;BME280;2870;42.680;23.364;2024-02-16T03:44:40;95684.00;;;3.08;88.97
5691;BME280;2870;42.680;23.364;2024-02-16T03:47:07;95684.69;;;2.97;88.27
5691;BME280;2870;42.680;23.364;2024-02-16T03:49:35;95683.91;;;2.91;88.81
5691;BME280;2870;42.680;23.364;2024-02-16T03:52:02;95680.34;;;2.85;89.17
5691;BME280;2870;42.680;23.364;2024-02-16T03:54:29;95683.34;;;2.81;89.41
5691;BME280;2870;42.680;23.364;2024-02-16T03:56:56;95678.53;;;2.76;89.37
5691;BME280;2870;42.680;23.364;2024-02-16T03:59:23;95676.22;;;2.69;90.29
5691;BME280;2870;42.680;23.364;2024-02-16T04:01:51;95682.00;;;2.71;89.86
5691;BME280;2870;42.680;23.364;2024-02-16T04:04:18;95679.28;;;2.77;89.99
5691;BME280;2870;42.680;23.364;2024-02-16T04:06:46;95683.06;;;2.74;89.83
5691;BME280;2870;42.680;23.364;2024-02-16T04:09:14;95677.03;;;2.81;89.97
5691;BME280;2870;42.680;23.364;2024-02-16T04:11:41;95683.50;;;2.66;89.62
5691;BME280;2870;42.680;23.364;2024-02-16T04:14:07;95681.44;;;2.56;90.24
5691;BME280;2870;42.680;23.364;2024-02-16T04:16:35;95676.75;;;2.36;90.27
5691;BME280;2870;42.680;23.364;2024-02-16T04:19:01;95676.66;;;2.25;90.55
5691;BME280;2870;42.680;23.364;2024-02-16T04:21:28;95675.84;;;2.19;90.80
5691;BME280;2870;42.680;23.364;2024-02-16T04:23:56;95677.75;;;2.33;89.76
5691;BME280;2870;42.680;23.364;2024-02-16T04:26:23;95679.53;;;2.04;90.59
5691;BME280;2870;42.680;23.364;2024-02-16T04:28:50;95677.94;;;1.98;90.86
5691;BME280;2870;42.680;23.364;2024-02-16T04:31:16;95677.47;;;1.99;91.00
5691;BME280;2870;42.680;23.364;2024-02-16T04:33:43;95680.50;;;2.01;91.13
5691;BME280;2870;42.680;23.364;2024-02-16T04:36:10;95688.41;;;2.14;90.89
5691;BME280;2870;42.680;23.364;2024-02-16T04:38:36;95682.91;;;1.88;90.45
5691;BME280;2870;42.680;23.364;2024-02-16T04:41:06;95677.50;;;1.79;90.96
5691;BME280;2870;42.680;23.364;2024-02-16T04:43:33;95682.28;;;1.78;91.48
5691;BME280;2870;42.680;23.364;2024-02-16T04:46:00;95672.69;;;1.74;91.43
5691;BME280;2870;42.680;23.364;2024-02-16T04:48:26;95679.47;;;1.73;91.80
5691;BME280;2870;42.680;23.364;2024-02-16T04:50:54;95685.81;;;1.79;91.37
5691;BME280;2870;42.680;23.364;2024-02-16T04:53:20;95692.09;;;1.79;91.74
5691;BME280;2870;42.680;23.364;2024-02-16T04:55:47;95685.56;;;1.77;92.04
5691;BME280;2870;42.680;23.364;2024-02-16T04:58:15;95688.84;;;1.81;92.01
5691;BME280;2870;42.680;23.364;2024-02-16T05:00:42;95697.69;;;1.85;91.77
5691;BME280;2870;42.680;23.364;2024-02-16T05:03:12;95698.34;;;1.74;91.73
5691;BME280;2870;42.680;23.364;2024-02-16T05:05:38;95702.97;;;1.83;90.97
5691;BME280;2870;42.680;23.364;2024-02-16T05:08:05;95706.25;;;1.87;91.66
5691;BME280;2870;42.680;23.364;2024-02-16T05:10:32;95698.72;;;1.88;91.88
5691;BME280;2870;42.680;23.364;2024-02-16T05:12:59;95698.50;;;1.91;91.38
5691;BME280;2870;42.680;23.364;2024-02-16T05:15:27;95703.47;;;1.87;91.87
5691;BME280;2870;42.680;23.364;2024-02-16T05:17:54;95712.78;;;1.84;91.76
5691;BME280;2870;42.680;23.364;2024-02-16T05:20:20;95717.00;;;2.05;91.60
5691;BME280;2870;42.680;23.364;2024-02-16T05:22:47;95713.03;;;1.86;91.76
5691;BME280;2870;42.680;23.364;2024-02-16T05:25:15;95671.75;;;1.56;92.20
5691;BME280;2870;42.680;23.364;2024-02-16T05:27:43;95718.81;;;1.82;92.58
5691;BME280;2870;42.680;23.364;2024-02-16T05:30:10;95716.09;;;1.88;92.57
5691;BME280;2870;42.680;23.364;2024-02-16T05:32:42;95727.97;;;1.94;91.83
5691;BME280;2870;42.680;23.364;2024-02-16T05:35:10;95716.84;;;1.89;92.59
5691;BME280;2870;42.680;23.364;2024-02-16T05:37:38;95726.72;;;1.95;92.62
5691;BME280;2870;42.680;23.364;2024-02-16T05:40:07;95723.19;;;1.95;92.12
5691;BME280;2870;42.680;23.364;2024-02-16T05:42:45;95737.91;;;2.06;92.81
5691;BME280;2870;42.680;23.364;2024-02-16T05:45:12;95741.38;;;2.01;92.02
5691;BME280;2870;42.680;23.364;2024-02-16T05:47:39;95717.06;;;1.85;91.81
5691;BME280;2870;42.680;23.364;2024-02-16T05:50:07;95731.75;;;1.97;92.55
5691;BME280;2870;42.680;23.364;2024-02-16T05:52:35;95698.00;;;1.67;92.78
5691;BME280;2870;42.680;23.364;2024-02-16T05:55:01;95737.13;;;2.06;92.64
5691;BME280;2870;42.680;23.364;2024-02-16T05:57:29;95738.66;;;2.07;92.38
5691;BME280;2870;42.680;23.364;2024-02-16T05:59:56;95728.22;;;2.22;92.69
5691;BME280;2870;42.680;23.364;2024-02-16T06:02:23;95732.78;;;2.57;90.88
5691;BME280;2870;42.680;23.364;2024-02-16T06:04:51;95734.09;;;2.61;89.51
5691;BME280;2870;42.680;23.364;2024-02-16T06:07:19;95743.53;;;2.49;90.15
5691;BME280;2870;42.680;23.364;2024-02-16T06:09:46;95740.88;;;2.60;89.93
5691;BME280;2870;42.680;23.364;2024-02-16T06:12:12;95741.09;;;2.57;89.71
5691;BME280;2870;42.680;23.364;2024-02-16T06:14:41;95744.88;;;2.59;89.61
5691;BME280;2870;42.680;23.364;2024-02-16T06:17:08;95741.41;;;2.64;89.89
5691;BME280;2870;42.680;23.364;2024-02-16T06:19:35;95743.00;;;2.77;88.53
5691;BME280;2870;42.680;23.364;2024-02-16T06:22:02;95748.09;;;2.84;88.16
5691;BME280;2870;42.680;23.364;2024-02-16T06:24:31;95754.63;;;2.81;88.00
5691;BME280;2870;42.680;23.364;2024-02-16T06:26:57;95752.94;;;2.57;89.26
5691;BME280;2870;42.680;23.364;2024-02-16T06:29:24;95750.44;;;2.59;89.37
5691;BME280;2870;42.680;23.364;2024-02-16T06:31:51;95740.00;;;2.80;88.49
5691;BME280;2870;42.680;23.364;2024-02-16T06:34:18;95744.00;;;2.74;88.80
5691;BME280;2870;42.680;23.364;2024-02-16T06:36:45;95749.63;;;2.85;88.36
5691;BME280;2870;42.680;23.364;2024-02-16T06:39:12;95751.28;;;2.71;88.59
5691;BME280;2870;42.680;23.364;2024-02-16T06:41:43;95749.00;;;2.70;88.01
5691;BME280;2870;42.680;23.364;2024-02-16T06:44:11;95745.59;;;2.54;88.95
5691;BME280;2870;42.680;23.364;2024-02-16T06:46:37;95737.78;;;2.84;88.66
5691;BME280;2870;42.680;23.364;2024-02-16T06:49:04;95741.31;;;2.85;87.24
5691;BME280;2870;42.680;23.364;2024-02-16T06:51:31;95755.97;;;3.39;86.24
5691;BME280;2870;42.680;23.364;2024-02-16T06:53:58;95748.66;;;4.18;82.87
5691;BME280;2870;42.680;23.364;2024-02-16T06:56:24;95749.72;;;4.71;79.83
5691;BME280;2870;42.680;23.364;2024-02-16T06:58:52;95746.69;;;4.75;78.63
5691;BME280;2870;42.680;23.364;2024-02-16T07:01:19;95757.25;;;4.99;77.22
5691;BME280;2870;42.680;23.364;2024-02-16T07:03:46;95757.78;;;4.97;76.94
5691;BME280;2870;42.680;23.364;2024-02-16T07:06:13;95752.91;;;5.37;75.24
5691;BME280;2870;42.680;23.364;2024-02-16T07:08:40;95749.59;;;5.39;74.22
5691;BME280;2870;42.680;23.364;2024-02-16T07:11:07;95750.59;;;5.47;74.38
5691;BME280;2870;42.680;23.364;2024-02-16T07:13:37;95754.16;;;5.42;74.45
5691;BME280;2870;42.680;23.364;2024-02-16T07:16:06;95756.34;;;5.66;74.00
5691;BME280;2870;42.680;23.364;2024-02-16T07:18:33;95745.97;;;6.24;71.93
5691;BME280;2870;42.680;23.364;2024-02-16T07:21:00;95745.56;;;6.45;70.20
5691;BME280;2870;42.680;23.364;2024-02-16T07:23:27;95749.81;;;6.87;69.44
5691;BME280;2870;42.680;23.364;2024-02-16T07:25:54;95755.66;;;7.13;68.20
5691;BME280;2870;42.680;23.364;2024-02-16T07:28:22;95749.22;;;6.28;69.83
5691;BME280;2870;42.680;23.364;2024-02-16T07:30:49;95751.97;;;5.93;72.28
5691;BME280;2870;42.680;23.364;2024-02-16T07:33:17;95746.63;;;5.89;71.78
5691;BME280;2870;42.680;23.364;2024-02-16T07:35:44;95751.91;;;6.04;72.42
5691;BME280;2870;42.680;23.364;2024-02-16T07:38:10;95746.13;;;6.37;72.07
5691;BME280;2870;42.680;23.364;2024-02-16T07:40:37;95756.84;;;6.28;70.35
5691;BME280;2870;42.680;23.364;2024-02-16T07:43:05;95750.75;;;5.71;71.83
5691;BME280;2870;42.680;23.364;2024-02-16T07:45:31;95753.91;;;5.45;73.45
5691;BME280;2870;42.680;23.364;2024-02-16T07:47:58;95751.84;;;5.57;74.12
5691;BME280;2870;42.680;23.364;2024-02-16T07:50:31;95757.75;;;5.89;74.04
5691;BME280;2870;42.680;23.364;2024-02-16T07:52:58;95754.56;;;6.26;73.50
5691;BME280;2870;42.680;23.364;2024-02-16T07:55:25;95751.16;;;6.45;72.62
5691;BME280;2870;42.680;23.364;2024-02-16T07:57:52;95750.88;;;6.48;71.92
5691;BME280;2870;42.680;23.364;2024-02-16T08:00:19;95752.13;;;6.53;72.10
5691;BME280;2870;42.680;23.364;2024-02-16T08:02:46;95753.75;;;6.37;71.96
5691;BME280;2870;42.680;23.364;2024-02-16T08:05:13;95759.59;;;6.33;73.14
5691;BME280;2870;42.680;23.364;2024-02-16T08:07:41;95727.78;;;6.12;73.15
5691;BME280;2870;42.680;23.364;2024-02-16T08:10:09;95761.59;;;6.38;72.26
5691;BME280;2870;42.680;23.364;2024-02-16T08:12:38;95758.06;;;6.32;72.73
5691;BME280;2870;42.680;23.364;2024-02-16T08:15:05;95754.50;;;5.96;74.12
5691;BME280;2870;42.680;23.364;2024-02-16T08:17:33;95762.03;;;6.48;73.29
5691;BME280;2870;42.680;23.364;2024-02-16T08:20:00;95762.91;;;6.68;72.55
5691;BME280;2870;42.680;23.364;2024-02-16T08:22:27;95762.19;;;6.91;71.29
5691;BME280;2870;42.680;23.364;2024-02-16T08:24:55;95754.72;;;7.05;71.21
5691;BME280;2870;42.680;23.364;2024-02-16T08:27:22;95760.34;;;7.00;70.77
5691;BME280;2870;42.680;23.364;2024-02-16T08:29:49;95764.66;;;7.01;70.31
5691;BME280;2870;42.680;23.364;2024-02-16T08:32:17;95758.78;;;6.74;71.39
5691;BME280;2870;42.680;23.364;2024-02-16T08:34:45;95766.31;;;7.15;70.40
5691;BME280;2870;42.680;23.364;2024-02-16T08:37:13;95765.31;;;7.37;69.42
5691;BME280;2870;42.680;23.364;2024-02-16T08:39:40;95762.28;;;7.59;67.87
5691;BME280;2870;42.680;23.364;2024-02-16T08:42:08;95768.97;;;7.75;67.58
5691;BME280;2870;42.680;23.364;2024-02-16T08:44:36;95754.41;;;7.82;66.27
5691;BME280;2870;42.680;23.364;2024-02-16T08:47:04;95758.25;;;7.79;66.57
5691;BME280;2870;42.680;23.364;2024-02-16T08:49:31;95767.47;;;7.74;66.68
5691;BME280;2870;42.680;23.364;2024-02-16T08:51:58;95755.88;;;7.64;67.53
5691;BME280;2870;42.680;23.364;2024-02-16T08:54:25;95764.53;;;7.85;66.20
5691;BME280;2870;42.680;23.364;2024-02-16T08:56:52;95767.59;;;8.06;66.53
5691;BME280;2870;42.680;23.364;2024-02-16T08:59:21;95760.34;;;8.35;63.68
5691;BME280;2870;42.680;23.364;2024-02-16T09:01:48;95764.16;;;9.74;60.29
5691;BME280;2870;42.680;23.364;2024-02-16T09:04:14;95769.81;;;10.69;57.14
5691;BME280;2870;42.680;23.364;2024-02-16T09:06:41;95772.50;;;11.58;53.90
5691;BME280;2870;42.680;23.364;2024-02-16T09:09:08;95771.47;;;12.41;51.54
5691;BME280;2870;42.680;23.364;2024-02-16T09:11:35;95769.97;;;12.47;50.18
5691;BME280;2870;42.680;23.364;2024-02-16T09:14:02;95777.34;;;12.14;51.46
5691;BME280;2870;42.680;23.364;2024-02-16T09:16:31;95778.66;;;12.57;50.33
5691;BME280;2870;42.680;23.364;2024-02-16T09:18:58;95784.66;;;13.59;49.24
5691;BME280;2870;42.680;23.364;2024-02-16T09:21:25;95776.72;;;13.88;45.53
5691;BME280;2870;42.680;23.364;2024-02-16T09:23:54;95782.41;;;13.57;45.29
5691;BME280;2870;42.680;23.364;2024-02-16T09:26:24;95772.44;;;13.25;47.27
5691;BME280;2870;42.680;23.364;2024-02-16T09:28:55;95784.47;;;13.41;46.10
5691;BME280;2870;42.680;23.364;2024-02-16T09:31:22;95787.59;;;13.99;44.33
5691;BME280;2870;42.680;23.364;2024-02-16T09:33:50;95780.63;;;15.03;42.60
5691;BME280;2870;42.680;23.364;2024-02-16T09:36:17;95766.59;;;13.85;43.59
5691;BME280;2870;42.680;23.364;2024-02-16T09:38:44;95774.38;;;14.24;43.54
5691;BME280;2870;42.680;23.364;2024-02-16T09:41:10;95771.44;;;14.63;42.92
5691;BME280;2870;42.680;23.364;2024-02-16T09:43:37;95771.97;;;14.13;44.36
5691;BME280;2870;42.680;23.364;2024-02-16T09:46:04;95767.94;;;15.12;41.36
5691;BME280;2870;42.680;23.364;2024-02-16T09:48:31;95738.38;;;15.63;41.00
5691;BME280;2870;42.680;23.364;2024-02-16T09:50:59;95776.84;;;16.70;38.90
5691;BME280;2870;42.680;23.364;2024-02-16T09:53:27;95772.34;;;16.50;39.79
5691;BME280;2870;42.680;23.364;2024-02-16T09:55:55;95774.75;;;15.84;39.35
5691;BME280;2870;42.680;23.364;2024-02-16T09:58:21;95762.28;;;15.37;40.96
5691;BME280;2870;42.680;23.364;2024-02-16T10:00:50;95765.47;;;15.16;40.94
5691;BME280;2870;42.680;23.364;2024-02-16T10:03:24;95733.84;;;15.60;39.85
5691;BME280;2870;42.680;23.364;2024-02-16T10:05:51;95757.03;;;15.83;39.30
5691;BME280;2870;42.680;23.364;2024-02-16T10:08:19;95754.50;;;15.70;39.93
5691;BME280;2870;42.680;23.364;2024-02-16T10:10:46;95753.06;;;16.21;39.90
5691;BME280;2870;42.680;23.364;2024-02-16T10:13:15;95753.47;;;16.00;39.25
5691;BME280;2870;42.680;23.364;2024-02-16T10:15:42;95738.53;;;15.65;40.99
5691;BME280;2870;42.680;23.364;2024-02-16T10:18:10;95736.41;;;15.23;42.30
5691;BME280;2870;42.680;23.364;2024-02-16T10:20:38;95733.91;;;15.95;39.70
5691;BME280;2870;42.680;23.364;2024-02-16T10:23:05;95735.00;;;15.57;41.59
5691;BME280;2870;42.680;23.364;2024-02-16T10:25:34;95742.28;;;15.68;40.49
5691;BME280;2870;42.680;23.364;2024-02-16T10:28:04;95701.28;;;16.11;39.36
5691;BME280;2870;42.680;23.364;2024-02-16T10:30:35;95718.19;;;16.19;39.84
5691;BME280;2870;42.680;23.364;2024-02-16T10:33:02;95728.44;;;15.29;41.18
5691;BME280;2870;42.680;23.364;2024-02-16T10:35:30;95726.25;;;15.87;40.72
5691;BME280;2870;42.680;23.364;2024-02-16T10:38:00;95721.81;;;15.34;40.87
5691;BME280;2870;42.680;23.364;2024-02-16T10:40:31;95723.25;;;16.20;39.94
5691;BME280;2870;42.680;23.364;2024-02-16T10:43:03;95720.72;;;16.41;39.26
5691;BME280;2870;42.680;23.364;2024-02-16T10:45:33;95714.81;;;15.60;40.82
5691;BME280;2870;42.680;23.364;2024-02-16T10:48:01;95721.44;;;15.98;41.34
5691;BME280;2870;42.680;23.364;2024-02-16T10:50:28;95716.09;;;16.19;39.85
5691;BME280;2870;42.680;23.364;2024-02-16T10:52:55;95717.59;;;16.03;39.47
5691;BME280;2870;42.680;23.364;2024-02-16T10:55:24;95691.16;;;15.48;40.55
5691;BME280;2870;42.680;23.364;2024-02-16T10:57:50;95706.38;;;15.53;42.13
5691;BME280;2870;42.680;23.364;2024-02-16T11:00:19;95701.47;;;15.53;40.76
5691;BME280;2870;42.680;23.364;2024-02-16T11:02:53;95694.41;;;15.45;41.17
5691;BME280;2870;42.680;23.364;2024-02-16T11:05:32;95705.00;;;15.36;42.11
5691;BME280;2870;42.680;23.364;2024-02-16T11:08:00;95692.53;;;15.82;39.91
5691;BME280;2870;42.680;23.364;2024-02-16T11:10:27;95691.50;;;15.52;40.26
5691;BME280;2870;42.680;23.364;2024-02-16T11:12:59;95685.19;;;15.19;40.68
5691;BME280;2870;42.680;23.364;2024-02-16T11:15:32;95694.66;;;14.89;42.68
5691;BME280;2870;42.680;23.364;2024-02-16T11:18:00;95683.81;;;15.03;41.75
5691;BME280;2870;42.680;23.364;2024-02-16T11:20:27;95686.38;;;13.63;43.93
5691;BME280;2870;42.680;23.364;2024-02-16T11:23:04;95648.94;;;13.70;44.50
5691;BME280;2870;42.680;23.364;2024-02-16T11:25:32;95693.91;;;14.16;42.78
5691;BME280;2870;42.680;23.364;2024-02-16T11:27:58;95683.09;;;13.89;43.54
5691;BME280;2870;42.680;23.364;2024-02-16T11:30:25;95671.53;;;14.10;43.22
5691;BME280;2870;42.680;23.364;2024-02-16T11:32:54;95669.84;;;13.44;44.66
5691;BME280;2870;42.680;23.364;2024-02-16T11:35:20;95677.38;;;12.95;46.31
5691;BME280;2870;42.680;23.364;2024-02-16T11:37:47;95671.41;;;13.22;46.29
5691;BME280;2870;42.680;23.364;2024-02-16T11:40:14;95664.41;;;13.38;45.79
5691;BME280;2870;42.680;23.364;2024-02-16T11:42:40;95666.50;;;12.77;45.93
5691;BME280;2870;42.680;23.364;2024-02-16T11:45:10;95663.28;;;13.57;44.53
5691;BME280;2870;42.680;23.364;2024-02-16T11:47:37;95656.91;;;13.25;44.93
5691;BME280;2870;42.680;23.364;2024-02-16T11:50:07;95655.81;;;13.29;45.27
5691;BME280;2870;42.680;23.364;2024-02-16T11:52:55;95654.91;;;13.82;43.58
5691;BME280;2870;42.680;23.364;2024-02-16T11:55:21;95656.94;;;13.89;43.95
5691;BME280;2870;42.680;23.364;2024-02-16T11:57:48;95656.25;;;13.81;43.95
5691;BME280;2870;42.680;23.364;2024-02-16T12:00:16;95646.41;;;13.03;46.28
5691;BME280;2870;42.680;23.364;2024-02-16T12:02:43;95636.09;;;12.90;46.37
5691;BME280;2870;42.680;23.364;2024-02-16T12:05:13;95637.16;;;13.48;45.49
5691;BME280;2870;42.680;23.364;2024-02-16T12:07:40;95644.31;;;13.42;45.12
5691;BME280;2870;42.680;23.364;2024-02-16T12:10:08;95645.41;;;13.62;45.50
5691;BME280;2870;42.680;23.364;2024-02-16T12:12:34;95650.34;;;14.01;44.81
5691;BME280;2870;42.680;23.364;2024-02-16T12:15:01;95640.56;;;13.95;44.85
5691;BME280;2870;42.680;23.364;2024-02-16T12:17:29;95637.53;;;13.52;45.24
5691;BME280;2870;42.680;23.364;2024-02-16T12:19:56;95631.16;;;13.37;45.57
5691;BME280;2870;42.680;23.364;2024-02-16T12:22:24;95639.41;;;13.42;45.85
5691;BME280;2870;42.680;23.364;2024-02-16T12:24:51;95635.97;;;13.67;45.31
5691;BME280;2870;42.680;23.364;2024-02-16T12:27:18;95635.56;;;13.78;45.30
5691;BME280;2870;42.680;23.364;2024-02-16T12:29:44;95638.19;;;13.76;45.44
5691;BME280;2870;42.680;23.364;2024-02-16T12:32:11;95631.84;;;13.60;45.72
5691;BME280;2870;42.680;23.364;2024-02-16T12:34:38;95623.13;;;13.25;46.51
5691;BME280;2870;42.680;23.364;2024-02-16T12:37:05;95630.94;;;13.50;46.60
5691;BME280;2870;42.680;23.364;2024-02-16T12:39:35;95627.94;;;13.48;47.13
5691;BME280;2870;42.680;23.364;2024-02-16T12:42:01;95627.56;;;13.44;46.83
5691;BME280;2870;42.680;23.364;2024-02-16T12:44:28;95626.69;;;12.72;47.29
5691;BME280;2870;42.680;23.364;2024-02-16T12:46:56;95610.19;;;12.84;47.63
5691;BME280;2870;42.680;23.364;2024-02-16T12:49:22;95618.97;;;13.19;47.02
5691;BME280;2870;42.680;23.364;2024-02-16T12:51:50;95620.91;;;13.72;45.94
5691;BME280;2870;42.680;23.364;2024-02-16T12:54:17;95611.59;;;13.62;45.70
5691;BME280;2870;42.680;23.364;2024-02-16T12:56:46;95607.34;;;13.30;45.89
5691;BME280;2870;42.680;23.364;2024-02-16T12:59:13;95610.91;;;13.31;46.21
5691;BME280;2870;42.680;23.364;2024-02-16T13:01:40;95621.03;;;13.41;46.01
5691;BME280;2870;42.680;23.364;2024-02-16T13:04:08;95610.53;;;13.26;46.43
5691;BME280;2870;42.680;23.364;2024-02-16T13:06:35;95606.03;;;13.00;47.78
5691;BME280;2870;42.680;23.364;2024-02-16T13:09:02;95606.78;;;13.16;46.65
5691;BME280;2870;42.680;23.364;2024-02-16T13:11:29;95611.28;;;13.27;46.83
5691;BME280;2870;42.680;23.364;2024-02-16T13:13:57;95613.13;;;13.47;46.80
5691;BME280;2870;42.680;23.364;2024-02-16T13:16:24;95613.72;;;13.31;47.23
5691;BME280;2870;42.680;23.364;2024-02-16T13:18:52;95612.03;;;13.35;47.32
5691;BME280;2870;42.680;23.364;2024-02-16T13:21:18;95604.13;;;13.34;48.20
5691;BME280;2870;42.680;23.364;2024-02-16T13:23:45;95610.16;;;13.30;47.46